createdAt,value
2023-02-22T00:00:48.623Z,43.40
2023-02-22T00:01:48.627Z,38.80
2023-02-22T00:02:48.645Z,39.70
2023-02-22T00:03:48.623Z,38.00
2023-02-22T00:04:48.573Z,40.30
2023-02-22T00:05:48.563Z,40.90
2023-02-22T00:06:48.569Z,39.70
2023-02-22T00:07:48.544Z,38.20
2023-02-22T00:08:48.539Z,40.00
2023-02-22T00:09:48.538Z,40.10
2023-02-22T00:10:48.522Z,40.50
2023-02-22T00:11:48.498Z,39.10
2023-02-22T00:12:48.502Z,38.40
2023-02-22T00:13:48.484Z,39.50
2023-02-22T00:14:48.488Z,38.00
2023-02-22T00:15:48.459Z,46.90
2023-02-22T00:16:48.436Z,44.80
2023-02-22T00:17:48.428Z,41.50
2023-02-22T00:18:48.449Z,39.60
2023-02-22T00:19:48.438Z,38.90
2023-02-22T00:20:48.419Z,41.40
2023-02-22T00:21:48.409Z,37.70
2023-02-22T00:22:48.389Z,41.20
2023-02-22T00:23:48.374Z,37.00
2023-02-22T00:24:48.372Z,41.40
2023-02-22T00:25:48.384Z,40.70
2023-02-22T00:26:48.331Z,36.40
2023-02-22T00:27:48.321Z,36.40
2023-02-22T00:28:48.336Z,39.30
2023-02-22T00:29:48.288Z,40.40
2023-02-22T00:30:48.298Z,36.10
2023-02-22T00:31:48.399Z,36.70
2023-02-22T00:32:48.285Z,40.90
2023-02-22T00:33:48.295Z,42.80
2023-02-22T00:34:48.252Z,38.10
2023-02-22T00:35:48.227Z,40.10
2023-02-22T00:36:48.293Z,39.20
2023-02-22T00:37:48.215Z,35.50
2023-02-22T00:38:48.199Z,39.90
2023-02-22T00:39:48.180Z,41.60
2023-02-22T00:40:48.184Z,40.20
2023-02-22T00:41:48.274Z,44.60
2023-02-22T00:42:48.151Z,39.90
2023-02-22T00:43:48.134Z,37.80
2023-02-22T00:44:48.132Z,40.40
2023-02-22T00:45:48.130Z,41.50
2023-02-22T00:46:48.132Z,40.40
2023-02-22T00:47:48.101Z,37.90
2023-02-22T00:48:48.088Z,41.80
2023-02-22T00:49:48.062Z,39.60
2023-02-22T00:50:48.063Z,40.40
2023-02-22T00:51:48.081Z,37.50
2023-02-22T00:52:48.035Z,38.70
2023-02-22T00:53:48.053Z,39.40
2023-02-22T00:54:48.038Z,40.60
2023-02-22T00:55:48.029Z,39.20
2023-02-22T00:56:48.027Z,36.60
2023-02-22T00:57:47.975Z,38.00
2023-02-22T00:58:48.010Z,38.00
2023-02-22T00:59:47.966Z,37.40
2023-02-22T01:00:48.033Z,42.80
2023-02-22T01:01:47.976Z,41.50
2023-02-22T01:02:47.924Z,38.80
2023-02-22T01:03:47.907Z,38.80
2023-02-22T01:04:47.906Z,41.30
2023-02-22T01:05:47.919Z,36.80
2023-02-22T01:06:47.894Z,38.70
2023-02-22T01:07:47.868Z,36.70
2023-02-22T01:08:47.865Z,36.30
2023-02-22T01:09:47.848Z,35.10
2023-02-22T01:10:47.871Z,35.80
2023-02-22T01:11:47.850Z,35.80
2023-02-22T01:12:47.877Z,36.60
2023-02-22T01:13:47.812Z,36.70
2023-02-22T01:14:47.790Z,33.50
2023-02-22T01:15:47.768Z,36.90
2023-02-22T01:16:47.864Z,35.70
2023-02-22T01:17:47.747Z,29.50
2023-02-22T01:18:47.755Z,32.40
2023-02-22T01:19:47.732Z,28.30
2023-02-22T01:20:47.727Z,27.40
2023-02-22T01:21:47.707Z,21.90
2023-02-22T01:22:47.741Z,25.20
2023-02-22T01:23:47.686Z,26.00
2023-02-22T01:24:47.682Z,26.20
2023-02-22T01:25:47.668Z,27.20
2023-02-22T01:26:47.649Z,27.10
2023-02-22T01:27:47.639Z,27.90
2023-02-22T01:28:47.660Z,27.00
2023-02-22T01:29:47.628Z,27.70
2023-02-22T01:30:47.768Z,31.50
2023-02-22T01:31:47.626Z,29.00
2023-02-22T01:32:47.589Z,27.00
2023-02-22T01:33:48.541Z,29.40
2023-02-22T01:34:47.561Z,28.90
2023-02-22T01:35:47.549Z,35.80
2023-02-22T01:36:47.572Z,31.30
2023-02-22T01:37:47.523Z,32.60
2023-02-22T01:38:47.519Z,36.60
2023-02-22T01:39:47.496Z,37.40
2023-02-22T01:40:47.508Z,33.10
2023-02-22T01:41:47.498Z,35.20
2023-02-22T01:42:47.470Z,32.50
2023-02-22T01:43:47.469Z,35.70
2023-02-22T01:44:47.454Z,35.20
2023-02-22T01:45:47.502Z,39.40
2023-02-22T01:46:47.462Z,40.60
2023-02-22T01:47:47.418Z,38.40
2023-02-22T01:48:47.438Z,33.20
2023-02-22T01:49:47.388Z,37.70
2023-02-22T01:50:47.377Z,36.00
2023-02-22T01:51:47.374Z,36.70
2023-02-22T01:52:47.349Z,39.90
2023-02-22T01:53:47.385Z,37.40
2023-02-22T01:54:47.332Z,35.80
2023-02-22T01:55:47.330Z,41.70
2023-02-22T01:56:47.334Z,32.50
2023-02-22T01:57:47.310Z,31.80
2023-02-22T01:58:47.300Z,36.30
2023-02-22T01:59:47.311Z,36.70
2023-02-22T02:00:47.276Z,36.50
2023-02-22T02:01:47.290Z,47.00
2023-02-22T02:02:47.260Z,33.20
2023-02-22T02:03:47.287Z,45.60
2023-02-22T02:04:47.307Z,30.30
2023-02-22T02:05:47.249Z,30.40
2023-02-22T02:06:47.232Z,30.20
2023-02-22T02:07:47.204Z,31.50
2023-02-22T02:08:47.198Z,33.50
2023-02-22T02:09:47.222Z,26.80
2023-02-22T02:10:47.171Z,29.60
2023-02-22T02:11:47.171Z,27.70
2023-02-22T02:12:47.179Z,28.10
2023-02-22T02:13:47.141Z,29.20
2023-02-22T02:14:47.127Z,31.80
2023-02-22T02:15:47.118Z,27.30
2023-02-22T02:16:47.758Z,56.90
2023-02-22T02:17:47.100Z,51.60
2023-02-22T02:18:47.087Z,25.80
2023-02-22T02:19:47.114Z,27.70
2023-02-22T02:20:47.054Z,29.50
2023-02-22T02:21:47.054Z,28.70
2023-02-22T02:22:47.038Z,29.90
2023-02-22T02:23:47.027Z,30.30
2023-02-22T02:24:47.018Z,34.00
2023-02-22T02:25:47.046Z,100.40
2023-02-22T02:26:46.991Z,77.00
2023-02-22T02:27:46.980Z,80.10
2023-02-22T02:28:46.967Z,30.30
2023-02-22T02:29:46.999Z,39.70
2023-02-22T02:30:46.948Z,31.30
2023-02-22T02:31:47.051Z,32.20
2023-02-22T02:32:47.013Z,46.20
2023-02-22T02:33:46.918Z,35.50
2023-02-22T02:34:46.902Z,53.10
2023-02-22T02:35:46.932Z,32.50
2023-02-22T02:36:46.895Z,41.80
2023-02-22T02:37:46.870Z,28.80
2023-02-22T02:38:46.931Z,36.90
2023-02-22T02:39:46.860Z,54.00
2023-02-22T02:40:46.852Z,33.20
2023-02-22T02:41:46.838Z,31.10
2023-02-22T02:42:46.828Z,30.30
2023-02-22T02:43:46.810Z,31.20
2023-02-22T02:44:46.801Z,37.60
2023-02-22T02:45:46.820Z,33.30
2023-02-22T02:46:46.831Z,41.10
2023-02-22T02:47:46.763Z,31.80
2023-02-22T02:48:46.757Z,32.90
2023-02-22T02:49:46.776Z,30.90
2023-02-22T02:50:46.726Z,37.00
2023-02-22T02:51:46.742Z,42.50
2023-02-22T02:52:46.693Z,37.90
2023-02-22T02:53:46.712Z,29.90
2023-02-22T02:54:46.699Z,32.40
2023-02-22T02:55:46.673Z,28.00
2023-02-22T02:56:46.674Z,32.00
2023-02-22T02:57:46.649Z,28.40
2023-02-22T02:58:46.653Z,26.70
2023-02-22T02:59:46.632Z,28.40
2023-02-22T03:00:46.635Z,26.00
2023-02-22T03:01:46.667Z,30.40
2023-02-22T03:02:47.558Z,26.50
2023-02-22T03:03:46.583Z,28.90
2023-02-22T03:04:46.585Z,27.20
2023-02-22T03:05:46.567Z,30.40
2023-02-22T03:06:46.595Z,32.50
2023-02-22T03:07:46.560Z,44.50
2023-02-22T03:08:46.539Z,32.60
2023-02-22T03:09:46.545Z,29.20
2023-02-22T03:10:46.494Z,27.90
2023-02-22T03:11:46.500Z,33.90
2023-02-22T03:12:46.486Z,32.20
2023-02-22T03:13:46.466Z,33.50
2023-02-22T03:14:46.467Z,33.40
2023-02-22T03:15:46.495Z,33.00
2023-02-22T03:16:46.437Z,33.90
2023-02-22T03:17:46.432Z,31.50
2023-02-22T03:18:46.435Z,33.70
2023-02-22T03:19:46.399Z,67.00
2023-02-22T03:20:46.402Z,40.10
2023-02-22T03:21:46.401Z,31.90
2023-02-22T03:22:46.368Z,32.80
2023-02-22T03:23:46.365Z,32.60
2023-02-22T03:24:46.340Z,31.20
2023-02-22T03:25:46.362Z,44.60
2023-02-22T03:26:46.320Z,41.40
2023-02-22T03:27:46.358Z,32.30
2023-02-22T03:28:46.307Z,35.30
2023-02-22T03:29:46.322Z,49.80
2023-02-22T03:30:46.340Z,30.20
2023-02-22T03:31:47.089Z,33.50
2023-02-22T03:32:46.252Z,34.30
2023-02-22T03:33:46.281Z,39.30
2023-02-22T03:34:46.232Z,61.10
2023-02-22T03:35:46.229Z,35.00
2023-02-22T03:36:46.388Z,44.60
2023-02-22T03:37:46.224Z,32.40
2023-02-22T03:38:46.646Z,31.50
2023-02-22T03:39:46.188Z,34.30
2023-02-22T03:40:46.168Z,63.50
2023-02-22T03:41:46.228Z,74.00
2023-02-22T03:42:46.500Z,50.30
2023-02-22T03:43:46.147Z,56.20
2023-02-22T03:44:46.126Z,32.00
2023-02-22T03:45:46.203Z,43.20
2023-02-22T03:46:46.119Z,114.70
2023-02-22T03:47:46.102Z,37.60
2023-02-22T03:48:46.068Z,82.60
2023-02-22T03:49:46.080Z,44.80
2023-02-22T03:50:46.047Z,46.70
2023-02-22T03:51:46.075Z,31.50
2023-02-22T03:52:46.072Z,61.60
2023-02-22T03:53:46.046Z,59.10
2023-02-22T03:54:46.009Z,63.40
2023-02-22T03:55:46.062Z,59.90
2023-02-22T03:56:46.442Z,33.20
2023-02-22T03:57:45.979Z,27.80
2023-02-22T03:58:45.955Z,34.10
2023-02-22T03:59:45.951Z,37.90
2023-02-22T04:00:45.933Z,48.60
2023-02-22T04:01:45.954Z,43.80
2023-02-22T04:02:45.980Z,34.80
2023-02-22T04:03:45.940Z,33.30
2023-02-22T04:04:45.982Z,44.30
2023-02-22T04:05:45.893Z,38.90
2023-02-22T04:06:45.870Z,45.90
2023-02-22T04:07:45.871Z,38.10
2023-02-22T04:08:45.839Z,125.90
2023-02-22T04:09:45.838Z,82.00
2023-02-22T04:10:45.849Z,78.10
2023-02-22T04:11:45.833Z,35.90
2023-02-22T04:12:46.032Z,30.70
2023-02-22T04:13:45.790Z,29.00
2023-02-22T04:14:45.787Z,69.10
2023-02-22T04:15:45.800Z,48.50
2023-02-22T04:16:45.768Z,49.50
2023-02-22T04:17:45.890Z,45.70
2023-02-22T04:18:45.751Z,73.80
2023-02-22T04:19:47.180Z,27.50
2023-02-22T04:20:45.720Z,70.00
2023-02-22T04:21:45.701Z,35.60
2023-02-22T04:22:46.641Z,30.00
2023-02-22T04:23:45.886Z,31.80
2023-02-22T04:24:45.687Z,35.20
2023-02-22T04:25:45.687Z,30.20
2023-02-22T04:26:45.696Z,30.00
2023-02-22T04:27:45.652Z,30.40
2023-02-22T04:28:45.628Z,37.30
2023-02-22T04:29:46.574Z,42.10
2023-02-22T04:30:45.670Z,44.00
2023-02-22T04:31:45.735Z,34.90
2023-02-22T04:32:45.574Z,30.60
2023-02-22T04:33:46.586Z,29.80
2023-02-22T04:34:45.624Z,31.40
2023-02-22T04:35:45.797Z,39.00
2023-02-22T04:36:45.537Z,70.60
2023-02-22T04:37:45.622Z,43.60
2023-02-22T04:38:45.591Z,35.30
2023-02-22T04:39:47.511Z,28.60
2023-02-22T04:40:45.535Z,51.90
2023-02-22T04:41:45.700Z,27.70
2023-02-22T04:42:45.472Z,43.60
2023-02-22T04:43:45.471Z,26.40
2023-02-22T04:44:46.889Z,29.40
2023-02-22T04:45:45.439Z,28.20
2023-02-22T04:46:45.575Z,28.70
2023-02-22T04:47:45.438Z,30.00
2023-02-22T04:48:45.401Z,37.30
2023-02-22T04:49:45.453Z,31.00
2023-02-22T04:50:45.406Z,49.30
2023-02-22T04:51:45.376Z,51.50
2023-02-22T04:52:45.387Z,37.00
2023-02-22T04:53:45.357Z,35.20
2023-02-22T04:54:45.345Z,27.70
2023-02-22T04:55:45.463Z,54.80
2023-02-22T04:56:45.320Z,45.50
2023-02-22T04:57:46.243Z,32.70
2023-02-22T04:58:45.366Z,32.60
2023-02-22T04:59:45.272Z,28.30
2023-02-22T05:00:45.259Z,25.90
2023-02-22T05:01:45.262Z,33.90
2023-02-22T05:02:45.340Z,33.50
2023-02-22T05:03:45.253Z,26.70
2023-02-22T05:04:45.402Z,40.50
2023-02-22T05:05:45.203Z,37.60
2023-02-22T05:06:45.214Z,27.90
2023-02-22T05:07:45.214Z,32.90
2023-02-22T05:08:45.188Z,45.20
2023-02-22T05:09:45.176Z,25.70
2023-02-22T05:10:45.170Z,30.30
2023-02-22T05:11:45.164Z,43.60
2023-02-22T05:12:45.126Z,33.00
2023-02-22T05:13:45.123Z,30.90
2023-02-22T05:14:45.123Z,52.00
2023-02-22T05:15:45.152Z,30.90
2023-02-22T05:16:45.097Z,32.50
2023-02-22T05:17:45.080Z,31.30
2023-02-22T05:18:45.054Z,38.70
2023-02-22T05:19:45.098Z,30.80
2023-02-22T05:20:45.050Z,66.80
2023-02-22T05:21:45.035Z,30.30
2023-02-22T05:22:45.194Z,44.50
2023-02-22T05:23:45.001Z,37.70
2023-02-22T05:24:44.991Z,38.00
2023-02-22T05:25:45.094Z,34.20
2023-02-22T05:26:44.973Z,35.30
2023-02-22T05:27:44.969Z,40.50
2023-02-22T05:28:46.938Z,78.20
2023-02-22T05:29:44.937Z,33.20
2023-02-22T05:30:44.981Z,38.30
2023-02-22T05:31:45.177Z,44.10
2023-02-22T05:32:46.965Z,40.90
2023-02-22T05:33:45.448Z,33.60
2023-02-22T05:34:44.888Z,42.80
2023-02-22T05:35:44.899Z,45.40
2023-02-22T05:36:44.849Z,45.50
2023-02-22T05:37:45.799Z,41.60
2023-02-22T05:38:44.846Z,39.30
2023-02-22T05:39:44.829Z,51.00
2023-02-22T05:40:44.852Z,31.50
2023-02-22T05:41:44.808Z,37.00
2023-02-22T05:42:44.791Z,33.00
2023-02-22T05:43:44.792Z,34.40
2023-02-22T05:44:44.770Z,80.00
2023-02-22T05:45:44.762Z,33.20
2023-02-22T05:46:44.805Z,33.60
2023-02-22T05:47:44.741Z,49.90
2023-02-22T05:48:44.708Z,27.80
2023-02-22T05:49:45.667Z,29.20
2023-02-22T05:50:44.786Z,39.70
2023-02-22T05:51:44.704Z,62.70
2023-02-22T05:52:44.720Z,33.40
2023-02-22T05:53:44.662Z,37.90
2023-02-22T05:54:44.659Z,67.50
2023-02-22T05:55:46.425Z,73.40
2023-02-22T05:56:44.629Z,34.90
2023-02-22T05:57:45.575Z,54.80
2023-02-22T05:58:44.625Z,63.60
2023-02-22T05:59:45.450Z,47.90
2023-02-22T06:00:44.582Z,91.10
2023-02-22T06:01:44.617Z,33.40
2023-02-22T06:02:44.592Z,36.00
2023-02-22T06:03:44.581Z,45.90
2023-02-22T06:04:44.535Z,43.10
2023-02-22T06:05:44.597Z,44.50
2023-02-22T06:06:44.525Z,36.30
2023-02-22T06:07:44.530Z,70.30
2023-02-22T06:08:44.510Z,45.90
2023-02-22T06:09:44.582Z,45.10
2023-02-22T06:10:44.469Z,40.70
2023-02-22T06:11:44.484Z,35.40
2023-02-22T06:12:44.448Z,39.90
2023-02-22T06:13:44.434Z,43.50
2023-02-22T06:14:44.446Z,41.10
2023-02-22T06:15:44.432Z,40.10
2023-02-22T06:16:44.392Z,79.20
2023-02-22T06:17:44.381Z,87.80
2023-02-22T06:18:44.390Z,42.20
2023-02-22T06:19:44.432Z,45.20
2023-02-22T06:20:44.374Z,38.10
2023-02-22T06:21:44.347Z,43.80
2023-02-22T06:22:44.347Z,40.90
2023-02-22T06:23:44.354Z,38.80
2023-02-22T06:24:44.330Z,38.20
2023-02-22T06:25:44.303Z,41.30
2023-02-22T06:26:44.324Z,52.10
2023-02-22T06:27:44.298Z,41.40
2023-02-22T06:28:44.295Z,36.80
2023-02-22T06:29:44.291Z,34.90
2023-02-22T06:30:44.392Z,53.30
2023-02-22T06:31:44.306Z,38.50
2023-02-22T06:32:44.244Z,41.00
2023-02-22T06:33:44.255Z,37.20
2023-02-22T06:34:44.202Z,40.60
2023-02-22T06:35:44.555Z,43.40
2023-02-22T06:36:44.184Z,37.10
2023-02-22T06:37:44.169Z,34.70
2023-02-22T06:38:44.176Z,56.40
2023-02-22T06:39:45.145Z,46.50
2023-02-22T06:40:44.129Z,45.60
2023-02-22T06:41:44.113Z,36.90
2023-02-22T06:42:45.585Z,49.50
2023-02-22T06:43:44.105Z,46.40
2023-02-22T06:44:44.086Z,79.90
2023-02-22T06:45:44.140Z,47.00
2023-02-22T06:46:44.092Z,41.70
2023-02-22T06:47:44.182Z,135.30
2023-02-22T06:48:44.036Z,46.30
2023-02-22T06:49:44.040Z,80.20
2023-02-22T06:50:44.034Z,45.50
2023-02-22T06:51:44.006Z,67.50
2023-02-22T06:52:44.007Z,88.00
2023-02-22T06:53:43.984Z,76.40
2023-02-22T06:54:43.976Z,69.70
2023-02-22T06:55:44.540Z,57.30
2023-02-22T06:56:43.977Z,52.00
2023-02-22T06:57:43.941Z,118.80
2023-02-22T06:58:43.939Z,40.20
2023-02-22T06:59:43.969Z,43.30
2023-02-22T07:00:43.972Z,83.20
2023-02-22T07:01:43.929Z,69.70
2023-02-22T07:02:43.890Z,37.20
2023-02-22T07:03:43.897Z,49.30
2023-02-22T07:04:43.891Z,44.80
2023-02-22T07:05:43.854Z,51.30
2023-02-22T07:06:43.850Z,44.20
2023-02-22T07:07:43.847Z,39.40
2023-02-22T07:08:43.812Z,62.80
2023-02-22T07:09:45.558Z,41.00
2023-02-22T07:10:43.786Z,36.20
2023-02-22T07:11:43.789Z,38.50
2023-02-22T07:12:43.798Z,44.60
2023-02-22T07:13:43.754Z,32.50
2023-02-22T07:14:43.797Z,33.90
2023-02-22T07:15:43.767Z,30.50
2023-02-22T07:16:43.801Z,31.50
2023-02-22T07:17:43.758Z,30.80
2023-02-22T07:18:43.746Z,31.80
2023-02-22T07:19:43.740Z,31.70
2023-02-22T07:20:43.694Z,29.60
2023-02-22T07:21:43.683Z,29.00
2023-02-22T07:22:43.667Z,29.90
2023-02-22T07:23:43.652Z,29.50
2023-02-22T07:24:43.654Z,29.30
2023-02-22T07:25:43.649Z,26.10
2023-02-22T07:26:43.625Z,25.10
2023-02-22T07:27:43.599Z,27.60
2023-02-22T07:28:43.624Z,26.90
2023-02-22T07:29:43.593Z,25.30
2023-02-22T07:30:43.655Z,25.00
2023-02-22T07:31:43.573Z,26.10
2023-02-22T07:32:43.678Z,26.90
2023-02-22T07:33:43.561Z,23.50
2023-02-22T07:34:43.622Z,24.40
2023-02-22T07:35:43.520Z,25.90
2023-02-22T07:36:43.525Z,25.20
2023-02-22T07:37:43.496Z,28.80
2023-02-22T07:38:43.486Z,24.50
2023-02-22T07:39:43.500Z,24.30
2023-02-22T07:40:43.465Z,24.00
2023-02-22T07:41:44.414Z,24.30
2023-02-22T07:42:43.436Z,26.70
2023-02-22T07:43:43.445Z,29.30
2023-02-22T07:44:43.424Z,24.80
2023-02-22T07:45:43.421Z,25.20
2023-02-22T07:46:43.435Z,22.60
2023-02-22T07:47:43.383Z,24.20
2023-02-22T07:48:43.932Z,23.30
2023-02-22T07:49:43.378Z,24.00
2023-02-22T07:50:43.351Z,23.10
2023-02-22T07:51:43.345Z,22.70
2023-02-22T07:52:43.361Z,24.30
2023-02-22T07:53:43.305Z,25.10
2023-02-22T07:54:43.317Z,23.60
2023-02-22T07:55:43.301Z,25.90
2023-02-22T07:56:43.326Z,23.10
2023-02-22T07:57:43.326Z,24.60
2023-02-22T07:58:43.271Z,21.40
2023-02-22T07:59:43.265Z,23.80
2023-02-22T08:00:43.275Z,24.60
2023-02-22T08:01:43.237Z,20.90
2023-02-22T08:02:44.730Z,22.00
2023-02-22T08:03:43.298Z,23.40
2023-02-22T08:04:43.252Z,23.50
2023-02-22T08:05:43.175Z,23.10
2023-02-22T08:06:43.272Z,21.70
2023-02-22T08:07:43.207Z,21.90
2023-02-22T08:08:43.146Z,24.70
2023-02-22T08:09:43.147Z,22.90
2023-02-22T08:10:43.192Z,20.50
2023-02-22T08:11:43.130Z,26.00
2023-02-22T08:12:43.110Z,21.30
2023-02-22T08:13:43.426Z,22.60
2023-02-22T08:14:43.092Z,22.30
2023-02-22T08:15:43.073Z,20.40
2023-02-22T08:16:43.091Z,21.40
2023-02-22T08:17:43.056Z,23.40
2023-02-22T08:18:43.093Z,22.40
2023-02-22T08:19:43.044Z,20.60
2023-02-22T08:20:43.056Z,41.10
2023-02-22T08:21:43.016Z,28.60
2023-02-22T08:22:43.002Z,46.20
2023-02-22T08:23:43.033Z,24.70
2023-02-22T08:24:42.996Z,24.60
2023-02-22T08:25:43.041Z,22.10
2023-02-22T08:26:42.951Z,21.40
2023-02-22T08:27:42.932Z,22.10
2023-02-22T08:28:42.931Z,22.20
2023-02-22T08:29:42.955Z,22.90
2023-02-22T08:30:44.414Z,21.50
2023-02-22T08:31:42.997Z,20.80
2023-02-22T08:32:42.990Z,22.60
2023-02-22T08:33:42.861Z,21.70
2023-02-22T08:34:42.881Z,21.20
2023-02-22T08:35:43.234Z,21.10
2023-02-22T08:36:42.854Z,21.20
2023-02-22T08:37:42.825Z,22.30
2023-02-22T08:38:42.816Z,22.70
2023-02-22T08:39:42.809Z,24.40
2023-02-22T08:40:42.821Z,22.30
2023-02-22T08:41:42.774Z,21.70
2023-02-22T08:42:42.794Z,20.90
2023-02-22T08:43:42.749Z,20.40
2023-02-22T08:44:42.750Z,20.00
2023-02-22T08:45:42.810Z,19.40
2023-02-22T08:46:42.766Z,20.10
2023-02-22T08:47:42.720Z,20.10
2023-02-22T08:48:42.694Z,19.90
2023-02-22T08:49:42.714Z,20.30
2023-02-22T08:50:42.696Z,28.20
2023-02-22T08:51:42.667Z,19.70
2023-02-22T08:52:42.670Z,23.50
2023-02-22T08:53:42.645Z,21.40
2023-02-22T08:54:42.666Z,27.90
2023-02-22T08:55:42.636Z,23.70
2023-02-22T08:56:42.618Z,22.40
2023-02-22T08:57:42.601Z,22.40
2023-02-22T08:58:42.644Z,25.10
2023-02-22T08:59:42.607Z,20.90
2023-02-22T09:00:42.582Z,21.00
2023-02-22T09:01:43.414Z,22.90
2023-02-22T09:02:42.542Z,20.10
2023-02-22T09:03:42.556Z,20.00
2023-02-22T09:04:43.554Z,19.20
2023-02-22T09:05:42.558Z,21.20
2023-02-22T09:06:42.546Z,21.40
2023-02-22T09:07:42.497Z,20.90
2023-02-22T09:08:42.517Z,18.00
2023-02-22T09:09:42.489Z,19.80
2023-02-22T09:10:42.459Z,20.50
2023-02-22T09:11:42.456Z,19.20
2023-02-22T09:12:42.609Z,18.60
2023-02-22T09:13:42.406Z,19.10
2023-02-22T09:14:42.450Z,20.20
2023-02-22T09:15:42.418Z,18.70
2023-02-22T09:16:42.401Z,23.10
2023-02-22T09:17:43.360Z,28.80
2023-02-22T09:18:44.308Z,87.90
2023-02-22T09:19:42.397Z,32.00
2023-02-22T09:20:42.371Z,25.30
2023-02-22T09:21:42.322Z,18.10
2023-02-22T09:22:42.358Z,20.20
2023-02-22T09:23:42.298Z,20.40
2023-02-22T09:24:42.289Z,18.40
2023-02-22T09:25:42.610Z,18.60
2023-02-22T09:26:42.272Z,17.40
2023-02-22T09:27:42.259Z,14.50
2023-02-22T09:28:42.245Z,16.20
2023-02-22T09:29:43.200Z,17.20
2023-02-22T09:30:42.318Z,15.70
2023-02-22T09:31:42.281Z,16.80
2023-02-22T09:32:42.425Z,16.20
2023-02-22T09:33:42.341Z,17.40
2023-02-22T09:34:42.175Z,15.10
2023-02-22T09:35:42.277Z,16.60
2023-02-22T09:36:42.253Z,16.50
2023-02-22T09:37:42.153Z,18.40
2023-02-22T09:38:42.149Z,17.30
2023-02-22T09:39:42.208Z,14.90
2023-02-22T09:40:43.073Z,14.30
2023-02-22T09:41:42.093Z,14.90
2023-02-22T09:42:42.118Z,15.00
2023-02-22T09:43:42.123Z,14.00
2023-02-22T09:44:42.098Z,15.50
2023-02-22T09:45:42.963Z,16.00
2023-02-22T09:46:42.058Z,16.00
2023-02-22T09:47:45.982Z,16.50
2023-02-22T09:48:49.300Z,14.20
2023-02-22T09:49:42.297Z,16.60
2023-02-22T09:50:42.327Z,18.90
2023-02-22T09:51:42.286Z,24.00
2023-02-22T09:52:42.726Z,21.10
2023-02-22T09:53:42.123Z,16.70
2023-02-22T09:54:41.966Z,15.00
2023-02-22T09:55:41.944Z,15.70
2023-02-22T09:56:41.918Z,14.90
2023-02-22T09:57:42.908Z,13.30
2023-02-22T09:58:41.956Z,14.90
2023-02-22T09:59:41.918Z,14.70
2023-02-22T10:00:42.850Z,16.80
2023-02-22T10:01:41.869Z,12.70
2023-02-22T10:02:41.860Z,14.20
2023-02-22T10:03:41.922Z,14.10
2023-02-22T10:04:41.865Z,14.40
2023-02-22T10:05:42.892Z,13.10
2023-02-22T10:06:41.800Z,14.60
2023-02-22T10:07:42.778Z,13.00
2023-02-22T10:08:41.802Z,11.70
2023-02-22T10:09:41.798Z,14.50
2023-02-22T10:10:41.812Z,14.80
2023-02-22T10:11:41.768Z,13.30
2023-02-22T10:12:41.771Z,14.30
2023-02-22T10:13:41.733Z,13.30
2023-02-22T10:14:43.856Z,14.10
2023-02-22T10:15:41.724Z,13.80
2023-02-22T10:16:41.793Z,13.10
2023-02-22T10:17:41.693Z,14.90
2023-02-22T10:18:41.698Z,12.00
2023-02-22T10:19:41.690Z,14.70
2023-02-22T10:20:41.674Z,12.50
2023-02-22T10:21:41.651Z,12.10
2023-02-22T10:22:41.646Z,13.30
2023-02-22T10:23:41.664Z,13.40
2023-02-22T10:24:41.629Z,12.40
2023-02-22T10:25:41.655Z,12.90
2023-02-22T10:26:42.679Z,12.10
2023-02-22T10:27:42.542Z,11.80
2023-02-22T10:28:41.593Z,12.90
2023-02-22T10:29:41.595Z,12.90
2023-02-22T10:30:41.592Z,13.70
2023-02-22T10:31:42.684Z,12.50
2023-02-22T10:32:41.591Z,10.20
2023-02-22T10:33:41.533Z,14.70
2023-02-22T10:34:41.490Z,11.40
2023-02-22T10:35:41.486Z,12.20
2023-02-22T10:36:41.486Z,11.70
2023-02-22T10:37:41.542Z,12.00
2023-02-22T10:38:41.777Z,10.70
2023-02-22T10:39:42.691Z,12.00
2023-02-22T10:40:41.424Z,17.90
2023-02-22T10:41:41.442Z,32.30
2023-02-22T10:42:41.459Z,25.00
2023-02-22T10:43:41.406Z,16.70
2023-02-22T10:44:41.404Z,13.10
2023-02-22T10:45:41.490Z,11.60
2023-02-22T10:46:41.370Z,12.00
2023-02-22T10:47:41.410Z,9.80
2023-02-22T10:48:41.358Z,9.40
2023-02-22T10:49:41.340Z,10.40
2023-02-22T10:50:41.365Z,10.10
2023-02-22T10:51:41.807Z,10.20
2023-02-22T10:52:41.331Z,10.50
2023-02-22T10:53:41.617Z,9.50
2023-02-22T10:54:41.339Z,9.30
2023-02-22T10:55:41.325Z,10.00
2023-02-22T10:56:41.332Z,9.30
2023-02-22T10:57:41.250Z,9.30
2023-02-22T10:58:41.242Z,8.70
2023-02-22T10:59:41.308Z,10.00
2023-02-22T11:00:41.237Z,8.70
2023-02-22T11:01:41.284Z,9.10
2023-02-22T11:02:41.292Z,8.70
2023-02-22T11:03:41.215Z,9.10
2023-02-22T11:04:41.284Z,9.20
2023-02-22T11:05:41.183Z,9.10
2023-02-22T11:06:41.205Z,11.80
2023-02-22T11:07:41.150Z,9.80
2023-02-22T11:08:41.150Z,8.30
2023-02-22T11:09:41.119Z,8.70
2023-02-22T11:10:41.137Z,10.40
2023-02-22T11:11:41.120Z,10.60
2023-02-22T11:12:42.191Z,11.30
2023-02-22T11:13:41.072Z,9.30
2023-02-22T11:14:41.092Z,10.20
2023-02-22T11:15:41.048Z,8.40
2023-02-22T11:16:41.073Z,8.60
2023-02-22T11:17:41.024Z,8.90
2023-02-22T11:18:41.070Z,9.60
2023-02-22T11:19:41.019Z,9.00
2023-02-22T11:20:40.992Z,10.00
2023-02-22T11:21:40.984Z,8.20
2023-02-22T11:22:40.972Z,9.70
2023-02-22T11:23:42.570Z,8.80
2023-02-22T11:24:49.025Z,9.00
2023-02-22T11:25:41.966Z,8.40
2023-02-22T11:26:40.925Z,33.70
2023-02-22T11:27:40.928Z,51.80
2023-02-22T11:28:40.896Z,29.20
2023-02-22T11:29:40.902Z,24.20
2023-02-22T11:30:40.917Z,21.70
2023-02-22T11:31:40.943Z,17.60
2023-02-22T11:32:40.856Z,17.50
2023-02-22T11:33:40.859Z,16.10
2023-02-22T11:34:40.845Z,10.90
2023-02-22T11:35:40.842Z,8.10
2023-02-22T11:36:42.764Z,7.80
2023-02-22T11:37:40.796Z,8.20
2023-02-22T11:38:41.746Z,8.50
2023-02-22T11:39:41.865Z,9.50
2023-02-22T11:40:40.815Z,8.50
2023-02-22T11:41:41.358Z,10.70
2023-02-22T11:42:40.747Z,8.20
2023-02-22T11:43:40.748Z,9.40
2023-02-22T11:44:40.706Z,7.70
2023-02-22T11:45:49.850Z,7.30
2023-02-22T11:46:41.790Z,12.00
2023-02-22T11:47:40.705Z,8.20
2023-02-22T11:48:40.667Z,8.90
2023-02-22T11:49:40.851Z,8.20
2023-02-22T11:50:40.661Z,22.10
2023-02-22T11:51:40.668Z,19.00
2023-02-22T11:52:41.848Z,10.10
2023-02-22T11:53:40.638Z,23.20
2023-02-22T11:54:40.615Z,14.30
2023-02-22T11:55:43.297Z,14.30
2023-02-22T11:56:41.398Z,10.20
2023-02-22T11:57:40.592Z,9.20
2023-02-22T11:58:40.576Z,8.10
2023-02-22T11:59:40.552Z,8.00
2023-02-22T12:00:40.850Z,8.10
2023-02-22T12:01:40.524Z,8.20
2023-02-22T12:02:43.681Z,7.90
2023-02-22T12:03:41.586Z,7.80
2023-02-22T12:04:40.649Z,8.20
2023-02-22T12:05:40.474Z,7.00
2023-02-22T12:06:41.166Z,6.70
2023-02-22T12:07:40.467Z,8.10
2023-02-22T12:08:40.485Z,7.80
2023-02-22T12:09:41.429Z,7.00
2023-02-22T12:10:40.627Z,8.60
2023-02-22T12:11:40.698Z,7.40
2023-02-22T12:12:40.430Z,9.10
2023-02-22T12:13:41.223Z,10.30
2023-02-22T12:14:41.388Z,7.00
2023-02-22T12:15:40.478Z,9.70
2023-02-22T12:16:40.430Z,11.60
2023-02-22T12:17:43.682Z,8.10
2023-02-22T12:18:41.355Z,9.60
2023-02-22T12:19:40.340Z,9.10
2023-02-22T12:20:41.137Z,9.10
2023-02-22T12:21:40.373Z,9.10
2023-02-22T12:22:40.310Z,8.50
2023-02-22T12:23:41.728Z,9.10
2023-02-22T12:24:40.294Z,8.90
2023-02-22T12:25:40.262Z,10.60
2023-02-22T12:26:40.298Z,8.90
2023-02-22T12:27:40.243Z,9.10
2023-02-22T12:28:40.311Z,8.40
2023-02-22T12:29:40.236Z,8.40
2023-02-22T12:30:40.268Z,8.00
2023-02-22T12:31:40.357Z,9.10
2023-02-22T12:32:40.218Z,8.80
2023-02-22T12:33:40.184Z,9.80
2023-02-22T12:34:40.225Z,9.70
2023-02-22T12:35:40.432Z,10.80
2023-02-22T12:36:40.509Z,10.40
2023-02-22T12:37:40.185Z,8.90
2023-02-22T12:38:41.575Z,9.20
2023-02-22T12:39:52.296Z,10.10
2023-02-22T12:40:42.042Z,8.30
2023-02-22T12:41:41.520Z,8.30
2023-02-22T12:42:41.512Z,9.50
2023-02-22T12:43:40.177Z,12.10
2023-02-22T12:44:40.979Z,9.50
2023-02-22T12:45:40.902Z,9.50
2023-02-22T12:46:40.113Z,9.10
2023-02-22T12:47:41.465Z,9.00
2023-02-22T12:48:40.548Z,12.10
2023-02-22T12:49:41.435Z,14.00
2023-02-22T12:50:41.491Z,16.80
2023-02-22T12:51:40.817Z,48.00
2023-02-22T12:52:40.095Z,20.10
2023-02-22T12:53:39.945Z,11.80
2023-02-22T12:54:39.933Z,9.60
2023-02-22T12:55:41.370Z,10.80